sensor_id;sensor_type;location;lat;lon;timestamp;P1;durP1;ratioP1;P2;durP2;ratioP2
47365;SDS011;33105;47.964;7.982;2023-05-02T00:01:50;12.23;;;8.60;;
47365;SDS011;33105;47.964;7.982;2023-05-02T00:04:53;10.40;;;8.50;;
47365;SDS011;33105;47.964;7.982;2023-05-02T00:07:54;11.50;;;9.38;;
47365;SDS011;33105;47.964;7.982;2023-05-02T00:10:57;11.07;;;8.98;;
47365;SDS011;33105;47.964;7.982;2023-05-02T00:13:58;9.93;;;8.48;;
47365;SDS011;33105;47.964;7.982;2023-05-02T00:17:00;11.60;;;8.38;;
47365;SDS011;33105;47.964;7.982;2023-05-02T00:20:03;11.65;;;8.98;;
47365;SDS011;33105;47.964;7.982;2023-05-02T00:23:05;10.93;;;7.63;;
47365;SDS011;33105;47.964;7.982;2023-05-02T00:26:08;14.05;;;8.25;;
47365;SDS011;33105;47.964;7.982;2023-05-02T00:29:11;9.02;;;8.13;;
47365;SDS011;33105;47.964;7.982;2023-05-02T00:32:14;11.27;;;8.95;;
47365;SDS011;33105;47.964;7.982;2023-05-02T00:35:16;12.52;;;8.13;;
47365;SDS011;33105;47.964;7.982;2023-05-02T00:38:19;10.32;;;8.85;;
47365;SDS011;33105;47.964;7.982;2023-05-02T00:41:20;10.52;;;9.38;;
47365;SDS011;33105;47.964;7.982;2023-05-02T00:44:22;11.63;;;9.10;;
47365;SDS011;33105;47.964;7.982;2023-05-02T00:47:24;10.52;;;9.35;;
47365;SDS011;33105;47.964;7.982;2023-05-02T00:50:27;11.75;;;9.50;;
47365;SDS011;33105;47.964;7.982;2023-05-02T00:53:31;10.82;;;9.65;;
47365;SDS011;33105;47.964;7.982;2023-05-02T00:56:32;10.70;;;8.85;;
47365;SDS011;33105;47.964;7.982;2023-05-02T00:59:35;14.80;;;9.88;;
47365;SDS011;33105;47.964;7.982;2023-05-02T01:02:52;10.63;;;9.40;;
47365;SDS011;33105;47.964;7.982;2023-05-02T01:15:28;11.90;;;9.45;;
47365;SDS011;33105;47.964;7.982;2023-05-02T01:18:34;15.35;;;10.68;;
47365;SDS011;33105;47.964;7.982;2023-05-02T01:21:39;14.57;;;9.70;;
47365;SDS011;33105;47.964;7.982;2023-05-02T01:24:57;11.77;;;10.10;;
47365;SDS011;33105;47.964;7.982;2023-05-02T01:28:26;10.37;;;9.07;;
47365;SDS011;33105;47.964;7.982;2023-05-02T01:31:38;9.20;;;8.23;;
47365;SDS011;33105;47.964;7.982;2023-05-02T01:34:42;10.25;;;9.15;;
47365;SDS011;33105;47.964;7.982;2023-05-02T01:37:47;11.85;;;9.45;;
47365;SDS011;33105;47.964;7.982;2023-05-02T01:40:52;9.57;;;8.55;;
47365;SDS011;33105;47.964;7.982;2023-05-02T01:43:58;10.68;;;8.60;;
47365;SDS011;33105;47.964;7.982;2023-05-02T01:47:03;9.68;;;8.25;;
47365;SDS011;33105;47.964;7.982;2023-05-02T01:50:07;11.35;;;8.35;;
47365;SDS011;33105;47.964;7.982;2023-05-02T01:53:11;11.68;;;8.68;;
47365;SDS011;33105;47.964;7.982;2023-05-02T01:56:15;12.38;;;8.85;;
47365;SDS011;33105;47.964;7.982;2023-05-02T01:59:20;10.18;;;8.52;;
47365;SDS011;33105;47.964;7.982;2023-05-02T02:02:24;9.88;;;8.27;;
47365;SDS011;33105;47.964;7.982;2023-05-02T02:05:28;8.85;;;8.05;;
47365;SDS011;33105;47.964;7.982;2023-05-02T02:08:31;17.15;;;7.43;;
47365;SDS011;33105;47.964;7.982;2023-05-02T02:11:35;14.00;;;7.45;;
47365;SDS011;33105;47.964;7.982;2023-05-02T02:14:45;11.57;;;7.47;;
47365;SDS011;33105;47.964;7.982;2023-05-02T02:21:28;9.15;;;7.45;;
47365;SDS011;33105;47.964;7.982;2023-05-02T02:24:32;9.85;;;8.13;;
47365;SDS011;33105;47.964;7.982;2023-05-02T02:27:37;9.93;;;8.85;;
47365;SDS011;33105;47.964;7.982;2023-05-02T02:30:40;13.15;;;9.40;;
47365;SDS011;33105;47.964;7.982;2023-05-02T02:33:42;10.80;;;9.13;;
47365;SDS011;33105;47.964;7.982;2023-05-02T02:36:46;10.82;;;9.35;;
47365;SDS011;33105;47.964;7.982;2023-05-02T02:43:35;10.80;;;8.85;;
47365;SDS011;33105;47.964;7.982;2023-05-02T02:53:14;10.77;;;9.02;;
47365;SDS011;33105;47.964;7.982;2023-05-02T02:56:21;13.60;;;8.55;;
47365;SDS011;33105;47.964;7.982;2023-05-02T02:59:33;10.70;;;8.73;;
47365;SDS011;33105;47.964;7.982;2023-05-02T03:02:40;10.20;;;8.55;;
47365;SDS011;33105;47.964;7.982;2023-05-02T03:05:43;12.82;;;8.65;;
47365;SDS011;33105;47.964;7.982;2023-05-02T03:08:47;10.43;;;9.32;;
47365;SDS011;33105;47.964;7.982;2023-05-02T03:11:54;10.95;;;9.10;;
47365;SDS011;33105;47.964;7.982;2023-05-02T03:15:01;12.98;;;8.55;;
47365;SDS011;33105;47.964;7.982;2023-05-02T03:18:13;9.82;;;7.90;;
47365;SDS011;33105;47.964;7.982;2023-05-02T03:21:15;9.85;;;8.85;;
47365;SDS011;33105;47.964;7.982;2023-05-02T03:24:18;10.40;;;9.13;;
47365;SDS011;33105;47.964;7.982;2023-05-02T03:27:21;10.10;;;9.02;;
47365;SDS011;33105;47.964;7.982;2023-05-02T03:30:24;10.18;;;8.57;;
47365;SDS011;33105;47.964;7.982;2023-05-02T03:33:28;11.90;;;9.75;;
47365;SDS011;33105;47.964;7.982;2023-05-02T03:36:32;10.65;;;8.80;;
47365;SDS011;33105;47.964;7.982;2023-05-02T03:39:33;11.82;;;9.55;;
47365;SDS011;33105;47.964;7.982;2023-05-02T03:42:36;13.35;;;9.15;;
47365;SDS011;33105;47.964;7.982;2023-05-02T03:45:51;8.95;;;8.00;;
47365;SDS011;33105;47.964;7.982;2023-05-02T03:48:52;9.40;;;8.43;;
47365;SDS011;33105;47.964;7.982;2023-05-02T03:51:55;9.98;;;8.95;;
47365;SDS011;33105;47.964;7.982;2023-05-02T03:55:02;9.57;;;8.63;;
47365;SDS011;33105;47.964;7.982;2023-05-02T03:58:06;12.73;;;9.20;;
47365;SDS011;33105;47.964;7.982;2023-05-02T04:01:12;14.00;;;8.88;;
47365;SDS011;33105;47.964;7.982;2023-05-02T04:04:21;10.10;;;9.02;;
47365;SDS011;33105;47.964;7.982;2023-05-02T04:07:26;10.90;;;8.88;;
47365;SDS011;33105;47.964;7.982;2023-05-02T04:10:35;11.50;;;8.80;;
47365;SDS011;33105;47.964;7.982;2023-05-02T04:13:42;15.75;;;9.75;;
47365;SDS011;33105;47.964;7.982;2023-05-02T04:16:47;10.65;;;9.55;;
47365;SDS011;33105;47.964;7.982;2023-05-02T04:19:51;12.02;;;8.90;;
47365;SDS011;33105;47.964;7.982;2023-05-02T04:22:56;14.63;;;9.25;;
47365;SDS011;33105;47.964;7.982;2023-05-02T04:25:58;14.18;;;9.68;;
47365;SDS011;33105;47.964;7.982;2023-05-02T04:29:07;9.73;;;8.73;;
47365;SDS011;33105;47.964;7.982;2023-05-02T04:32:10;14.70;;;9.95;;
47365;SDS011;33105;47.964;7.982;2023-05-02T04:35:14;16.30;;;10.65;;
47365;SDS011;33105;47.964;7.982;2023-05-02T04:38:17;15.23;;;11.20;;
47365;SDS011;33105;47.964;7.982;2023-05-02T04:41:20;12.00;;;10.63;;
47365;SDS011;33105;47.964;7.982;2023-05-02T04:44:28;12.13;;;9.77;;
47365;SDS011;33105;47.964;7.982;2023-05-02T04:47:31;11.90;;;9.82;;
47365;SDS011;33105;47.964;7.982;2023-05-02T04:50:32;9.65;;;8.55;;
47365;SDS011;33105;47.964;7.982;2023-05-02T04:53:34;11.90;;;9.63;;
47365;SDS011;33105;47.964;7.982;2023-05-02T04:56:36;12.38;;;10.50;;
47365;SDS011;33105;47.964;7.982;2023-05-02T04:59:39;11.05;;;9.98;;
47365;SDS011;33105;47.964;7.982;2023-05-02T05:02:43;10.95;;;8.82;;
47365;SDS011;33105;47.964;7.982;2023-05-02T05:05:46;11.65;;;8.90;;
47365;SDS011;33105;47.964;7.982;2023-05-02T05:08:51;10.95;;;9.77;;
47365;SDS011;33105;47.964;7.982;2023-05-02T05:11:53;11.00;;;9.82;;
47365;SDS011;33105;47.964;7.982;2023-05-02T05:14:56;12.02;;;10.60;;
47365;SDS011;33105;47.964;7.982;2023-05-02T05:18:00;11.65;;;10.40;;
47365;SDS011;33105;47.964;7.982;2023-05-02T05:21:02;15.15;;;10.77;;
47365;SDS011;33105;47.964;7.982;2023-05-02T05:24:03;11.63;;;10.20;;
47365;SDS011;33105;47.964;7.982;2023-05-02T05:27:07;11.23;;;9.57;;
47365;SDS011;33105;47.964;7.982;2023-05-02T05:30:11;16.75;;;9.98;;
47365;SDS011;33105;47.964;7.982;2023-05-02T05:33:14;10.10;;;8.93;;
47365;SDS011;33105;47.964;7.982;2023-05-02T05:36:17;12.13;;;8.52;;
47365;SDS011;33105;47.964;7.982;2023-05-02T05:39:18;10.80;;;8.27;;
47365;SDS011;33105;47.964;7.982;2023-05-02T05:42:23;7.05;;;6.35;;
47365;SDS011;33105;47.964;7.982;2023-05-02T05:45:29;7.53;;;6.30;;
47365;SDS011;33105;47.964;7.982;2023-05-02T05:48:31;11.95;;;6.50;;
47365;SDS011;33105;47.964;7.982;2023-05-02T05:51:34;10.32;;;7.05;;
47365;SDS011;33105;47.964;7.982;2023-05-02T05:54:36;12.32;;;8.77;;
47365;SDS011;33105;47.964;7.982;2023-05-02T05:57:38;14.35;;;8.80;;
47365;SDS011;33105;47.964;7.982;2023-05-02T06:00:40;10.30;;;8.48;;
47365;SDS011;33105;47.964;7.982;2023-05-02T06:03:43;15.13;;;9.35;;
47365;SDS011;33105;47.964;7.982;2023-05-02T06:06:45;18.10;;;9.95;;
47365;SDS011;33105;47.964;7.982;2023-05-02T06:09:47;13.45;;;10.52;;
47365;SDS011;33105;47.964;7.982;2023-05-02T06:12:51;22.55;;;10.98;;
47365;SDS011;33105;47.964;7.982;2023-05-02T06:16:01;14.48;;;10.13;;
47365;SDS011;33105;47.964;7.982;2023-05-02T06:19:04;20.17;;;10.45;;
47365;SDS011;33105;47.964;7.982;2023-05-02T06:22:06;11.40;;;9.88;;
47365;SDS011;33105;47.964;7.982;2023-05-02T06:25:08;11.43;;;10.05;;
47365;SDS011;33105;47.964;7.982;2023-05-02T06:28:11;12.60;;;9.75;;
47365;SDS011;33105;47.964;7.982;2023-05-02T06:31:12;10.68;;;9.57;;
47365;SDS011;33105;47.964;7.982;2023-05-02T06:34:14;12.30;;;9.35;;
47365;SDS011;33105;47.964;7.982;2023-05-02T06:37:15;12.07;;;10.18;;
47365;SDS011;33105;47.964;7.982;2023-05-02T06:40:17;11.32;;;10.13;;
47365;SDS011;33105;47.964;7.982;2023-05-02T06:43:19;13.73;;;10.00;;
47365;SDS011;33105;47.964;7.982;2023-05-02T06:46:21;14.23;;;11.57;;
47365;SDS011;33105;47.964;7.982;2023-05-02T06:49:23;15.23;;;13.02;;
47365;SDS011;33105;47.964;7.982;2023-05-02T06:52:24;18.73;;;12.20;;
47365;SDS011;33105;47.964;7.982;2023-05-02T06:55:27;19.65;;;14.45;;
47365;SDS011;33105;47.964;7.982;2023-05-02T06:58:28;17.10;;;13.05;;
47365;SDS011;33105;47.964;7.982;2023-05-02T07:01:30;16.88;;;14.65;;
47365;SDS011;33105;47.964;7.982;2023-05-02T07:04:32;20.15;;;18.02;;
47365;SDS011;33105;47.964;7.982;2023-05-02T07:07:33;20.58;;;17.15;;
47365;SDS011;33105;47.964;7.982;2023-05-02T07:10:35;19.27;;;17.25;;
47365;SDS011;33105;47.964;7.982;2023-05-02T07:13:38;21.95;;;17.77;;
47365;SDS011;33105;47.964;7.982;2023-05-02T07:16:40;22.17;;;17.98;;
47365;SDS011;33105;47.964;7.982;2023-05-02T07:19:42;24.42;;;19.33;;
47365;SDS011;33105;47.964;7.982;2023-05-02T07:22:44;24.25;;;20.45;;
47365;SDS011;33105;47.964;7.982;2023-05-02T07:25:49;24.63;;;20.55;;
47365;SDS011;33105;47.964;7.982;2023-05-02T07:28:50;21.98;;;17.40;;
47365;SDS011;33105;47.964;7.982;2023-05-02T07:31:52;24.67;;;18.77;;
47365;SDS011;33105;47.964;7.982;2023-05-02T07:34:54;23.77;;;18.52;;
47365;SDS011;33105;47.964;7.982;2023-05-02T07:37:57;25.55;;;19.73;;
47365;SDS011;33105;47.964;7.982;2023-05-02T07:40:59;21.85;;;19.42;;
47365;SDS011;33105;47.964;7.982;2023-05-02T07:44:01;24.17;;;19.85;;
47365;SDS011;33105;47.964;7.982;2023-05-02T07:47:04;20.88;;;17.00;;
47365;SDS011;33105;47.964;7.982;2023-05-02T07:50:06;22.95;;;19.50;;
47365;SDS011;33105;47.964;7.982;2023-05-02T07:53:07;23.75;;;19.15;;
47365;SDS011;33105;47.964;7.982;2023-05-02T07:56:09;25.63;;;18.98;;
47365;SDS011;33105;47.964;7.982;2023-05-02T07:59:13;20.77;;;17.85;;
47365;SDS011;33105;47.964;7.982;2023-05-02T08:02:14;22.00;;;17.98;;
47365;SDS011;33105;47.964;7.982;2023-05-02T08:05:20;19.55;;;15.82;;
47365;SDS011;33105;47.964;7.982;2023-05-02T08:08:22;20.92;;;16.95;;
47365;SDS011;33105;47.964;7.982;2023-05-02T08:11:24;17.42;;;14.10;;
47365;SDS011;33105;47.964;7.982;2023-05-02T08:14:26;18.13;;;15.48;;
47365;SDS011;33105;47.964;7.982;2023-05-02T08:17:27;23.10;;;17.52;;
47365;SDS011;33105;47.964;7.982;2023-05-02T08:20:30;27.02;;;16.73;;
47365;SDS011;33105;47.964;7.982;2023-05-02T08:23:31;16.17;;;14.00;;
47365;SDS011;33105;47.964;7.982;2023-05-02T08:26:33;18.52;;;15.63;;
47365;SDS011;33105;47.964;7.982;2023-05-02T08:29:35;14.57;;;12.32;;
47365;SDS011;33105;47.964;7.982;2023-05-02T08:32:36;17.73;;;13.55;;
47365;SDS011;33105;47.964;7.982;2023-05-02T08:35:38;19.08;;;12.48;;
47365;SDS011;33105;47.964;7.982;2023-05-02T08:38:41;14.95;;;12.63;;
47365;SDS011;33105;47.964;7.982;2023-05-02T08:41:43;17.45;;;12.82;;
47365;SDS011;33105;47.964;7.982;2023-05-02T08:44:45;14.50;;;13.00;;
47365;SDS011;33105;47.964;7.982;2023-05-02T08:47:49;20.05;;;15.07;;
47365;SDS011;33105;47.964;7.982;2023-05-02T08:50:52;17.52;;;13.65;;
47365;SDS011;33105;47.964;7.982;2023-05-02T08:53:54;19.13;;;14.68;;
47365;SDS011;33105;47.964;7.982;2023-05-02T08:56:59;16.35;;;13.48;;
47365;SDS011;33105;47.964;7.982;2023-05-02T09:00:03;15.00;;;12.38;;
47365;SDS011;33105;47.964;7.982;2023-05-02T09:06:32;13.68;;;12.02;;
47365;SDS011;33105;47.964;7.982;2023-05-02T09:09:35;25.02;;;15.65;;
47365;SDS011;33105;47.964;7.982;2023-05-02T09:12:37;16.58;;;13.52;;
47365;SDS011;33105;47.964;7.982;2023-05-02T09:15:40;16.52;;;11.77;;
47365;SDS011;33105;47.964;7.982;2023-05-02T09:18:44;24.25;;;12.63;;
47365;SDS011;33105;47.964;7.982;2023-05-02T09:21:46;23.50;;;13.85;;
47365;SDS011;33105;47.964;7.982;2023-05-02T09:24:53;13.70;;;10.98;;
47365;SDS011;33105;47.964;7.982;2023-05-02T09:27:56;13.85;;;10.65;;
47365;SDS011;33105;47.964;7.982;2023-05-02T09:31:05;13.18;;;10.30;;
47365;SDS011;33105;47.964;7.982;2023-05-02T09:34:12;13.50;;;10.95;;
47365;SDS011;33105;47.964;7.982;2023-05-02T09:37:32;13.00;;;9.40;;
47365;SDS011;33105;47.964;7.982;2023-05-02T09:40:35;11.40;;;8.38;;
47365;SDS011;33105;47.964;7.982;2023-05-02T09:43:38;12.02;;;9.05;;
47365;SDS011;33105;47.964;7.982;2023-05-02T09:46:40;10.35;;;9.02;;
47365;SDS011;33105;47.964;7.982;2023-05-02T09:49:57;13.45;;;8.07;;
47365;SDS011;33105;47.964;7.982;2023-05-02T09:53:05;7.75;;;6.95;;
47365;SDS011;33105;47.964;7.982;2023-05-02T09:56:11;11.65;;;9.05;;
47365;SDS011;33105;47.964;7.982;2023-05-02T09:59:14;8.48;;;7.25;;
47365;SDS011;33105;47.964;7.982;2023-05-02T10:02:17;7.85;;;6.70;;
47365;SDS011;33105;47.964;7.982;2023-05-02T10:05:23;9.35;;;7.05;;
47365;SDS011;33105;47.964;7.982;2023-05-02T10:08:26;10.52;;;7.07;;
47365;SDS011;33105;47.964;7.982;2023-05-02T10:11:28;8.50;;;6.78;;
47365;SDS011;33105;47.964;7.982;2023-05-02T10:14:38;6.60;;;5.53;;
47365;SDS011;33105;47.964;7.982;2023-05-02T10:17:43;8.65;;;6.05;;
47365;SDS011;33105;47.964;7.982;2023-05-02T10:20:53;6.88;;;5.65;;
47365;SDS011;33105;47.964;7.982;2023-05-02T10:24:00;7.50;;;6.75;;
47365;SDS011;33105;47.964;7.982;2023-05-02T10:27:04;10.25;;;7.10;;
47365;SDS011;33105;47.964;7.982;2023-05-02T10:30:06;8.55;;;6.68;;
47365;SDS011;33105;47.964;7.982;2023-05-02T10:33:09;10.27;;;6.75;;
47365;SDS011;33105;47.964;7.982;2023-05-02T10:36:14;7.32;;;6.28;;
47365;SDS011;33105;47.964;7.982;2023-05-02T10:39:16;7.40;;;6.30;;
47365;SDS011;33105;47.964;7.982;2023-05-02T10:42:20;9.55;;;6.20;;
47365;SDS011;33105;47.964;7.982;2023-05-02T10:45:31;7.07;;;5.65;;
47365;SDS011;33105;47.964;7.982;2023-05-02T10:48:34;8.55;;;6.90;;
47365;SDS011;33105;47.964;7.982;2023-05-02T10:51:39;10.77;;;6.18;;
47365;SDS011;33105;47.964;7.982;2023-05-02T10:54:42;10.80;;;6.10;;
47365;SDS011;33105;47.964;7.982;2023-05-02T11:04:25;9.50;;;5.30;;
47365;SDS011;33105;47.964;7.982;2023-05-02T11:07:28;7.63;;;5.40;;
47365;SDS011;33105;47.964;7.982;2023-05-02T11:10:39;9.15;;;5.60;;
47365;SDS011;33105;47.964;7.982;2023-05-02T11:13:47;10.43;;;5.80;;
47365;SDS011;33105;47.964;7.982;2023-05-02T11:26:20;9.82;;;5.90;;
47365;SDS011;33105;47.964;7.982;2023-05-02T11:35:56;9.20;;;5.80;;
47365;SDS011;33105;47.964;7.982;2023-05-02T11:38:59;6.55;;;5.63;;
47365;SDS011;33105;47.964;7.982;2023-05-02T11:42:03;8.25;;;6.13;;
47365;SDS011;33105;47.964;7.982;2023-05-02T11:45:06;7.18;;;5.32;;
47365;SDS011;33105;47.964;7.982;2023-05-02T11:48:09;8.25;;;5.75;;
47365;SDS011;33105;47.964;7.982;2023-05-02T11:51:13;10.18;;;5.53;;
47365;SDS011;33105;47.964;7.982;2023-05-02T11:54:23;5.60;;;4.80;;
47365;SDS011;33105;47.964;7.982;2023-05-02T11:57:26;7.85;;;5.70;;
47365;SDS011;33105;47.964;7.982;2023-05-02T12:00:28;6.80;;;5.53;;
47365;SDS011;33105;47.964;7.982;2023-05-02T12:03:30;5.53;;;4.90;;
47365;SDS011;33105;47.964;7.982;2023-05-02T12:06:34;5.78;;;4.95;;
47365;SDS011;33105;47.964;7.982;2023-05-02T12:09:49;8.70;;;5.32;;
47365;SDS011;33105;47.964;7.982;2023-05-02T12:13:02;6.82;;;5.60;;
47365;SDS011;33105;47.964;7.982;2023-05-02T12:16:06;11.20;;;5.07;;
47365;SDS011;33105;47.964;7.982;2023-05-02T12:19:08;11.00;;;4.90;;
47365;SDS011;33105;47.964;7.982;2023-05-02T12:22:10;8.40;;;5.28;;
47365;SDS011;33105;47.964;7.982;2023-05-02T12:25:13;8.27;;;5.70;;
47365;SDS011;33105;47.964;7.982;2023-05-02T12:28:16;9.02;;;7.70;;
47365;SDS011;33105;47.964;7.982;2023-05-02T12:31:20;12.20;;;7.10;;
47365;SDS011;33105;47.964;7.982;2023-05-02T12:34:30;12.30;;;6.93;;
47365;SDS011;33105;47.964;7.982;2023-05-02T12:37:33;7.30;;;6.43;;
47365;SDS011;33105;47.964;7.982;2023-05-02T12:40:35;11.13;;;5.90;;
47365;SDS011;33105;47.964;7.982;2023-05-02T12:43:48;8.63;;;6.65;;
47365;SDS011;33105;47.964;7.982;2023-05-02T12:46:58;8.52;;;6.15;;
47365;SDS011;33105;47.964;7.982;2023-05-02T12:50:01;7.35;;;4.53;;
47365;SDS011;33105;47.964;7.982;2023-05-02T12:53:04;7.00;;;4.40;;
47365;SDS011;33105;47.964;7.982;2023-05-02T12:56:08;5.60;;;4.68;;
47365;SDS011;33105;47.964;7.982;2023-05-02T12:59:24;5.55;;;4.55;;
47365;SDS011;33105;47.964;7.982;2023-05-02T13:02:33;5.38;;;4.88;;
47365;SDS011;33105;47.964;7.982;2023-05-02T13:05:36;6.93;;;5.40;;
47365;SDS011;33105;47.964;7.982;2023-05-02T13:08:38;8.95;;;5.45;;
47365;SDS011;33105;47.964;7.982;2023-05-02T13:11:40;9.48;;;5.90;;
47365;SDS011;33105;47.964;7.982;2023-05-02T13:14:43;8.35;;;4.78;;
47365;SDS011;33105;47.964;7.982;2023-05-02T13:17:46;7.35;;;4.20;;
47365;SDS011;33105;47.964;7.982;2023-05-02T13:20:49;6.78;;;3.92;;
47365;SDS011;33105;47.964;7.982;2023-05-02T13:23:51;7.60;;;4.30;;
47365;SDS011;33105;47.964;7.982;2023-05-02T13:26:54;8.45;;;4.88;;
47365;SDS011;33105;47.964;7.982;2023-05-02T13:29:55;6.35;;;4.43;;
47365;SDS011;33105;47.964;7.982;2023-05-02T13:32:58;4.82;;;3.78;;
47365;SDS011;33105;47.964;7.982;2023-05-02T13:36:01;7.85;;;4.10;;
47365;SDS011;33105;47.964;7.982;2023-05-02T13:39:03;5.57;;;4.35;;
47365;SDS011;33105;47.964;7.982;2023-05-02T13:42:05;6.32;;;4.03;;
47365;SDS011;33105;47.964;7.982;2023-05-02T13:45:06;5.38;;;4.10;;
47365;SDS011;33105;47.964;7.982;2023-05-02T13:48:08;6.05;;;3.83;;
47365;SDS011;33105;47.964;7.982;2023-05-02T13:51:10;22.98;;;10.13;;
47365;SDS011;33105;47.964;7.982;2023-05-02T13:54:11;9.88;;;3.83;;
47365;SDS011;33105;47.964;7.982;2023-05-02T13:57:14;7.65;;;4.30;;
47365;SDS011;33105;47.964;7.982;2023-05-02T14:00:16;6.07;;;3.63;;
47365;SDS011;33105;47.964;7.982;2023-05-02T14:03:18;3.83;;;3.22;;
47365;SDS011;33105;47.964;7.982;2023-05-02T14:06:20;6.18;;;3.70;;
47365;SDS011;33105;47.964;7.982;2023-05-02T14:09:21;6.18;;;4.07;;
47365;SDS011;33105;47.964;7.982;2023-05-02T14:12:23;6.53;;;3.90;;
47365;SDS011;33105;47.964;7.982;2023-05-02T14:15:25;4.03;;;3.22;;
47365;SDS011;33105;47.964;7.982;2023-05-02T14:18:28;4.50;;;2.70;;
47365;SDS011;33105;47.964;7.982;2023-05-02T14:21:30;9.75;;;5.15;;
47365;SDS011;33105;47.964;7.982;2023-05-02T14:24:32;14.07;;;6.75;;
47365;SDS011;33105;47.964;7.982;2023-05-02T14:27:34;6.40;;;3.83;;
47365;SDS011;33105;47.964;7.982;2023-05-02T14:30:36;5.53;;;3.95;;
47365;SDS011;33105;47.964;7.982;2023-05-02T14:33:39;6.20;;;3.95;;
47365;SDS011;33105;47.964;7.982;2023-05-02T14:36:41;4.38;;;3.40;;
47365;SDS011;33105;47.964;7.982;2023-05-02T14:39:43;5.78;;;3.55;;
47365;SDS011;33105;47.964;7.982;2023-05-02T14:42:46;5.07;;;3.50;;
47365;SDS011;33105;47.964;7.982;2023-05-02T14:45:49;4.93;;;2.95;;
47365;SDS011;33105;47.964;7.982;2023-05-02T14:48:50;5.63;;;3.30;;
47365;SDS011;33105;47.964;7.982;2023-05-02T14:51:52;6.28;;;3.15;;
47365;SDS011;33105;47.964;7.982;2023-05-02T14:54:57;3.95;;;3.15;;
47365;SDS011;33105;47.964;7.982;2023-05-02T14:58:00;4.15;;;3.70;;
47365;SDS011;33105;47.964;7.982;2023-05-02T15:01:02;4.93;;;3.40;;
47365;SDS011;33105;47.964;7.982;2023-05-02T15:04:03;5.90;;;3.90;;
47365;SDS011;33105;47.964;7.982;2023-05-02T15:07:05;3.83;;;3.40;;
47365;SDS011;33105;47.964;7.982;2023-05-02T15:10:07;4.43;;;3.08;;
47365;SDS011;33105;47.964;7.982;2023-05-02T15:13:09;4.68;;;3.38;;
47365;SDS011;33105;47.964;7.982;2023-05-02T15:16:12;4.43;;;2.95;;
47365;SDS011;33105;47.964;7.982;2023-05-02T15:19:14;8.23;;;2.97;;
47365;SDS011;33105;47.964;7.982;2023-05-02T15:22:15;5.40;;;3.03;;
47365;SDS011;33105;47.964;7.982;2023-05-02T15:25:18;5.72;;;2.70;;
47365;SDS011;33105;47.964;7.982;2023-05-02T15:28:21;3.63;;;2.90;;
47365;SDS011;33105;47.964;7.982;2023-05-02T15:31:23;4.05;;;2.97;;
47365;SDS011;33105;47.964;7.982;2023-05-02T15:34:25;6.18;;;3.00;;
47365;SDS011;33105;47.964;7.982;2023-05-02T15:37:27;2.83;;;2.30;;
47365;SDS011;33105;47.964;7.982;2023-05-02T15:40:30;6.53;;;3.20;;
47365;SDS011;33105;47.964;7.982;2023-05-02T15:43:33;3.83;;;3.22;;
47365;SDS011;33105;47.964;7.982;2023-05-02T15:46:35;3.50;;;3.20;;
47365;SDS011;33105;47.964;7.982;2023-05-02T15:49:36;6.10;;;3.08;;
47365;SDS011;33105;47.964;7.982;2023-05-02T15:52:38;4.88;;;2.90;;
47365;SDS011;33105;47.964;7.982;2023-05-02T15:55:40;3.53;;;2.90;;
47365;SDS011;33105;47.964;7.982;2023-05-02T15:58:43;6.20;;;3.75;;
47365;SDS011;33105;47.964;7.982;2023-05-02T16:01:44;7.18;;;4.38;;
47365;SDS011;33105;47.964;7.982;2023-05-02T16:04:46;8.02;;;5.45;;
47365;SDS011;33105;47.964;7.982;2023-05-02T16:07:48;6.85;;;5.63;;
47365;SDS011;33105;47.964;7.982;2023-05-02T16:10:51;8.30;;;6.05;;
47365;SDS011;33105;47.964;7.982;2023-05-02T16:13:55;7.65;;;6.57;;
47365;SDS011;33105;47.964;7.982;2023-05-02T16:16:58;9.23;;;6.40;;
47365;SDS011;33105;47.964;7.982;2023-05-02T16:20:00;8.00;;;7.20;;
47365;SDS011;33105;47.964;7.982;2023-05-02T16:23:02;9.85;;;6.80;;
47365;SDS011;33105;47.964;7.982;2023-05-02T16:26:05;10.07;;;7.70;;
47365;SDS011;33105;47.964;7.982;2023-05-02T16:29:06;9.95;;;7.18;;
47365;SDS011;33105;47.964;7.982;2023-05-02T16:32:08;11.65;;;8.02;;
47365;SDS011;33105;47.964;7.982;2023-05-02T16:35:10;10.85;;;8.00;;
47365;SDS011;33105;47.964;7.982;2023-05-02T16:38:13;11.93;;;8.82;;
47365;SDS011;33105;47.964;7.982;2023-05-02T16:41:15;11.07;;;8.25;;
47365;SDS011;33105;47.964;7.982;2023-05-02T16:44:17;10.98;;;8.35;;
47365;SDS011;33105;47.964;7.982;2023-05-02T16:47:19;10.20;;;6.65;;
47365;SDS011;33105;47.964;7.982;2023-05-02T16:50:22;8.32;;;6.55;;
47365;SDS011;33105;47.964;7.982;2023-05-02T16:53:25;7.18;;;6.18;;
47365;SDS011;33105;47.964;7.982;2023-05-02T16:56:29;8.55;;;6.40;;
47365;SDS011;33105;47.964;7.982;2023-05-02T16:59:31;7.88;;;5.78;;
47365;SDS011;33105;47.964;7.982;2023-05-02T17:02:33;7.35;;;5.05;;
47365;SDS011;33105;47.964;7.982;2023-05-02T17:05:36;6.15;;;5.00;;
47365;SDS011;33105;47.964;7.982;2023-05-02T17:08:38;8.27;;;5.60;;
47365;SDS011;33105;47.964;7.982;2023-05-02T17:11:40;7.32;;;4.95;;
47365;SDS011;33105;47.964;7.982;2023-05-02T17:14:42;8.77;;;5.90;;
47365;SDS011;33105;47.964;7.982;2023-05-02T17:17:44;6.00;;;5.35;;
47365;SDS011;33105;47.964;7.982;2023-05-02T17:20:46;6.40;;;4.40;;
47365;SDS011;33105;47.964;7.982;2023-05-02T17:23:48;5.15;;;4.50;;
47365;SDS011;33105;47.964;7.982;2023-05-02T17:26:50;5.13;;;4.60;;
47365;SDS011;33105;47.964;7.982;2023-05-02T17:29:53;6.32;;;4.72;;
47365;SDS011;33105;47.964;7.982;2023-05-02T17:32:56;6.38;;;5.30;;
47365;SDS011;33105;47.964;7.982;2023-05-02T17:35:58;6.90;;;4.60;;
47365;SDS011;33105;47.964;7.982;2023-05-02T17:39:00;5.97;;;4.63;;
47365;SDS011;33105;47.964;7.982;2023-05-02T17:42:05;4.82;;;4.38;;
47365;SDS011;33105;47.964;7.982;2023-05-02T17:45:07;7.50;;;4.30;;
47365;SDS011;33105;47.964;7.982;2023-05-02T17:48:11;5.38;;;4.20;;
47365;SDS011;33105;47.964;7.982;2023-05-02T17:51:14;3.97;;;3.58;;
47365;SDS011;33105;47.964;7.982;2023-05-02T17:54:16;5.88;;;4.60;;
47365;SDS011;33105;47.964;7.982;2023-05-02T17:57:18;7.25;;;4.20;;
47365;SDS011;33105;47.964;7.982;2023-05-02T18:00:19;5.38;;;4.28;;
47365;SDS011;33105;47.964;7.982;2023-05-02T18:03:22;4.90;;;4.40;;
47365;SDS011;33105;47.964;7.982;2023-05-02T18:06:26;7.80;;;4.68;;
47365;SDS011;33105;47.964;7.982;2023-05-02T18:09:28;5.65;;;5.00;;
47365;SDS011;33105;47.964;7.982;2023-05-02T18:12:30;4.72;;;4.22;;
47365;SDS011;33105;47.964;7.982;2023-05-02T18:15:33;6.03;;;4.70;;
47365;SDS011;33105;47.964;7.982;2023-05-02T18:18:35;6.68;;;4.90;;
47365;SDS011;33105;47.964;7.982;2023-05-02T18:21:37;7.45;;;5.10;;
47365;SDS011;33105;47.964;7.982;2023-05-02T18:24:39;7.10;;;5.53;;
47365;SDS011;33105;47.964;7.982;2023-05-02T18:27:41;8.15;;;5.03;;
47365;SDS011;33105;47.964;7.982;2023-05-02T18:30:43;6.53;;;5.18;;
47365;SDS011;33105;47.964;7.982;2023-05-02T18:33:44;8.48;;;5.68;;
47365;SDS011;33105;47.964;7.982;2023-05-02T18:36:47;6.93;;;5.97;;
47365;SDS011;33105;47.964;7.982;2023-05-02T18:39:49;7.72;;;6.90;;
47365;SDS011;33105;47.964;7.982;2023-05-02T18:42:52;8.52;;;5.95;;
47365;SDS011;33105;47.964;7.982;2023-05-02T18:45:53;8.63;;;5.75;;
47365;SDS011;33105;47.964;7.982;2023-05-02T18:48:55;6.93;;;5.47;;
47365;SDS011;33105;47.964;7.982;2023-05-02T18:51:57;5.43;;;4.93;;
47365;SDS011;33105;47.964;7.982;2023-05-02T18:55:00;6.30;;;5.32;;
47365;SDS011;33105;47.964;7.982;2023-05-02T18:58:07;7.25;;;5.95;;
47365;SDS011;33105;47.964;7.982;2023-05-02T19:01:15;6.18;;;5.60;;
47365;SDS011;33105;47.964;7.982;2023-05-02T19:04:18;6.82;;;5.68;;